Sunday, January 20, 2019, 1:56 AM EST
Back to Local

KRME, Griffiss Airfield

Location: Rome, NY, United States Lat: 43.233
Local Time: 1:56 AM EST ( 6:56 GMT) Lon: -75.4
Time Zone: US/Eastern Elev: 505 ft

Show me the last for .
Show Coded

Time T Td Feel RH Dir Speed Gust Alt SLP Vis Weather Sky Remarks
2019-01-20 00:53 14 12 2 91 140° 9 - 29.81 29.83 0 SN FZFG VV005 Pressure falling rapidly
1-hr Precip Total: Trace
6-hr Precip Total (1am): 0.00"
6-hr Min Temp (1am): 12.9°F
6-hr Max Temp (1am): 19.9°F
2019-01-19 23:53 14 13 3 95 150° 8 - 29.88 29.90 0 SN FZFG VV005 Pressure falling rapidly
1-hr Precip Total: Trace
24-hr Min Temp (12am): 14.0°F
24-hr Max Temp (12am): 27.0°F
2019-01-19 22:53 16 14 4 91 140° 9 - 29.94 29.96 0 SN FZFG VV007 1-hr Precip Total: Trace
2019-01-19 21:53 16 14 6 91 140° 7 - 29.99 30.01 0 SN FZFG VV008 1-hr Precip Total: Trace
6-hr Precip Total (10pm): 0.00"
2019-01-19 21:43 16 14 6 91 140° 7 - 29.99 - 0 -SN BR VV009 1-hr Precip Total: Trace
2019-01-19 21:31 16 14 6 91 130° 7 - 30.00 - 0 -SN BR VV010 1-hr Precip Total: Trace
2019-01-19 21:23 16 14 6 91 130° 7 - 30.01 - 1 -SN BR VV010 1-hr Precip Total: Trace
2019-01-19 20:53 17 14 6 87 130° 9 - 30.03 30.05 0 -SN BR VV011 1-hr Precip Total: Trace
2019-01-19 20:19 18 16 8 91 140° 8 - 30.04 - 0 -SN BR VV010 1-hr Precip Total: Trace
2019-01-19 19:53 18 16 8 91 130° 8 - 30.05 30.07 0 -SN BR VV009 1-hr Precip Total: Trace
2019-01-19 19:42 19 16 7 87 130° 10 - 30.06 - 0 -SN BR VV014 1-hr Precip Total: Trace
2019-01-19 19:34 20 17 9 88 130° 9 - 30.06 - 1 -SN BR OVC021 1-hr Precip Total: Trace
2019-01-19 19:24 20 18 9 91 120° 9 - 30.07 - 2 -SN BR OVC029 1-hr Precip Total: Trace
2019-01-19 19:10 20 17 10 88 120° 8 - 30.07 - 3 -SN BR OVC033 1-hr Precip Total: Trace
2019-01-19 18:53 20 18 10 91 110° 8 - 30.09 30.11 2 -SN BR OVC030 1-hr Precip Total: Trace
6-hr Precip Total (7pm): 0.00"
6-hr Min Temp (7pm): 17.1°F
6-hr Max Temp (7pm): 21.0°F
2019-01-19 18:49 19 18 10 92 110° 7 - 30.09 - 1 -SN BR OVC028 1-hr Precip Total: Trace
2019-01-19 18:41 20 17 10 88 120° 8 - 30.09 - 2 -SN BR BKN030 OVC055 1-hr Precip Total: Trace
2019-01-19 18:09 20 17 11 88 130° 7 - 30.11 - 3 -SN BR SCT029 OVC060 1-hr Precip Total: Trace
2019-01-19 18:05 19 17 8 91 130° 9 - 30.11 - 2 -SN BR BKN029 OVC065 1-hr Precip Total: Trace
2019-01-19 17:53 20 17 10 88 110° 8 - 30.11 30.13 2 -SN BR OVC031 1-hr Precip Total: Trace
2019-01-19 17:22 20 18 11 91 90° 7 - 30.12 - 3 -SN BR OVC035 1-hr Precip Total: Trace
2019-01-19 17:11 21 18 12 87 100° 7 - 30.12 - 2 -SN BR OVC027 1-hr Precip Total: Trace
2019-01-19 16:53 21 18 10 87 100° 10 - 30.12 30.14 1 -SN BR OVC021 1-hr Precip Total: Trace
2019-01-19 16:49 21 18 11 85 100° 9 - 30.12 - 1 -SN BR OVC021 1-hr Precip Total: Trace
2019-01-19 16:40 21 18 10 87 90° 10 - 30.13 - 0 -SN BR VV017 1-hr Precip Total: Trace
2019-01-19 15:53 21 18 11 87 110° 9 - 30.15 30.17 0 -SN BR VV014 1-hr Precip Total: Trace
6-hr Precip Total (4pm): 0.00"
2019-01-19 15:38 21 18 11 87 100° 9 - 30.16 - 0 SN FZFG VV013 1-hr Precip Total: Trace
2019-01-19 15:26 21 19 11 91 100° 8 - 30.16 - 0 -SN BR VV017 1-hr Precip Total: Trace
2019-01-19 14:53 21 18 15 87 100° 5 - 30.16 30.18 1 -SN BR OVC024 1-hr Precip Total: Trace
2019-01-19 14:32 19 17 - 91 - Calm - 30.16 - 1 -SN BR VV016 1-hr Precip Total: Trace
2019-01-19 13:53 17 15 - 91 - Calm - 30.18 30.20 0 -SN BR VV014 1-hr Precip Total: Trace
2019-01-19 13:45 17 15 12 91 300° 3 - 30.19 - 0 -SN BR VV015 1-hr Precip Total: Trace
2019-01-19 13:36 17 14 10 87 290° 5 - 30.19 - 1 -SN BR VV016 1-hr Precip Total: Trace
2019-01-19 13:08 16 13 7 87 300° 6 - 30.19 - 0 -SN BR VV018 1-hr Precip Total: Trace
2019-01-19 13:00 17 14 9 87 300° 6 - 30.20 - 1 -SN BR BKN021 OVC030 1-hr Precip Total: Trace
2019-01-19 12:53 17 15 12 91 280° 3 - 30.20 30.22 2 -SN BR BKN023 OVC033 1-hr Precip Total: Trace
6-hr Precip Total (1pm): 0.00"
6-hr Min Temp (1pm): 14.0°F
6-hr Max Temp (1pm): 18.0°F
2019-01-19 12:50 18 14 11 85 270° 5 - 30.20 - 2 -SN BR BKN025 OVC033 1-hr Precip Total: Trace
2019-01-19 12:30 18 14 11 84 300° 5 - 30.21 - 2 -SN BR OVC034 1-hr Precip Total: Trace
2019-01-19 11:53 17 13 12 83 Variable 3 - 30.25 30.27 2 -SN BR BKN027 OVC034 1-hr Precip Total: Trace
2019-01-19 11:42 17 11 - 76 - Calm - 30.26 - 2 -SN BKN029 OVC036 1-hr Precip Total: Trace
2019-01-19 10:53 16 9 9 73 280° 5 - 30.29 30.31 10 OVC070 None
2019-01-19 09:53 16 9 - 73 - Calm - 30.31 30.32 10 OVC037 None
2019-01-19 08:53 15 8 - 73 - Calm - 30.30 30.32 10 OVC037 None
2019-01-19 07:53 14 8 4 76 310° 7 - 30.30 30.32 10 OVC037 None
2019-01-19 06:53 15 9 6 76 330° 6 - 30.27 30.29 10 OVC037 Pressure rising rapidly
6-hr Min Temp (7am): 15.1°F
6-hr Max Temp (7am): 25.0°F
2019-01-19 05:53 15 8 8 73 10° 5 - 30.25 30.27 10 OVC039 None
2019-01-19 04:53 16 9 4 73 20° 9 - 30.25 30.27 10 OVC037 None
2019-01-19 03:53 19 12 8 73 350° 9 - 30.24 30.26 10 OVC037 None
2019-01-19 02:53 20 14 12 77 360° 6 - 30.23 30.24 10 OVC040 None

Support USWX by starting your Amazon purchase here.